Time;durP1;ratioP1;P1;durP2;ratioP2;P2;SDS_P1;SDS_P2;PMS_P1;PMS_P2;Temp;Humidity;BMP_temperature;BMP_pressure;BME280_temperature;BME280_humidity;BME280_pressure;Samples;Min_cycle;Max_cycle;Signal;HPM_P1;HPM_P2
2022/06/10 00:01:57;;;;;;;4.43;1.70;;;16.10;69.10;;;;;;5114123;28;20020;-31
2022/06/10 00:04:23;;;;;;;5.80;2.20;;;16.00;69.10;;;;;;5114500;28;20157;-30
2022/06/10 00:06:48;;;;;;;4.88;1.90;;;16.00;69.30;;;;;;5114117;28;20052;-30
2022/06/10 00:09:14;;;;;;;4.32;2.10;;;16.00;69.40;;;;;;5114458;28;20036;-29
2022/06/10 00:11:41;;;;;;;3.92;1.80;;;16.00;69.40;;;;;;5113999;28;20094;-30
2022/06/10 00:14:06;;;;;;;7.07;1.90;;;15.90;69.50;;;;;;5114155;28;20024;-30
2022/06/10 00:16:33;;;;;;;3.90;1.65;;;15.90;69.60;;;;;;5114123;28;20403;-31
2022/06/10 00:18:59;;;;;;;3.42;1.50;;;15.80;69.70;;;;;;5114181;28;20058;-29
2022/06/10 00:21:25;;;;;;;4.90;2.17;;;15.80;69.90;;;;;;5113742;28;20058;-35
2022/06/10 00:23:50;;;;;;;5.10;1.75;;;15.80;70.00;;;;;;5112533;28;20052;-30
2022/06/10 00:26:17;;;;;;;4.50;2.05;;;15.70;70.10;;;;;;5113679;28;20035;-29
2022/06/10 00:28:43;;;;;;;3.22;1.48;;;15.70;70.20;;;;;;5114242;28;20034;-29
2022/06/10 00:31:09;;;;;;;3.78;1.90;;;15.70;70.40;;;;;;5113064;28;20052;-32
2022/06/10 00:33:35;;;;;;;4.07;1.70;;;15.70;70.60;;;;;;5113405;28;20024;-31
2022/06/10 00:36:01;;;;;;;4.22;1.67;;;15.60;70.70;;;;;;5113470;28;20046;-30
2022/06/10 00:38:27;;;;;;;4.72;1.92;;;15.60;70.90;;;;;;5113817;28;20016;-29
2022/06/10 00:40:55;;;;;;;5.93;1.75;;;15.50;70.90;;;;;;5113411;28;20072;-30
2022/06/10 00:43:25;;;;;;;3.65;1.75;;;15.50;71.10;;;;;;5113455;28;20020;-29
2022/06/10 00:46:11;;;;;;;2.25;1.50;;;15.50;71.10;;;;;;5113399;28;20467;-30
2022/06/10 00:48:55;;;;;;;4.30;1.50;;;15.50;70.90;;;;;;5111927;28;20016;-29
2022/06/10 00:51:31;;;;;;;3.67;1.60;;;15.40;71.40;;;;;;5113328;28;20016;-30
2022/06/10 00:54:12;;;;;;;3.95;1.70;;;15.40;71.40;;;;;;5113069;28;20024;-30
2022/06/10 00:56:42;;;;;;;4.72;1.70;;;15.30;71.60;;;;;;5113189;28;20023;-31
2022/06/10 00:59:15;;;;;;;5.32;2.22;;;15.30;71.70;;;;;;5113223;28;20067;-30
2022/06/10 01:01:41;;;;;;;6.13;1.95;;;15.30;71.80;;;;;;5113785;28;20012;-31
2022/06/10 01:04:08;;;;;;;6.53;1.80;;;15.20;71.80;;;;;;5113446;28;20405;-29
2022/06/10 01:06:34;;;;;;;5.63;1.80;;;15.20;71.90;;;;;;5112992;28;20080;-30
2022/06/10 01:09:02;;;;;;;6.47;2.10;;;15.10;72.10;;;;;;5113046;28;20451;-30
2022/06/10 01:11:54;;;;;;;4.40;1.85;;;15.10;72.30;;;;;;5113025;28;20024;-31
2022/06/10 01:14:19;;;;;;;6.05;1.98;;;15.00;72.60;;;;;;5113352;28;20023;-29
2022/06/10 01:17:21;;;;;;;4.22;1.70;;;15.10;72.70;;;;;;5113070;28;20421;-31
2022/06/10 01:20:02;;;;;;;4.18;1.90;;;15.00;72.90;;;;;;5112823;28;20024;-29
2022/06/10 01:22:58;;;;;;;4.90;1.77;;;15.00;72.90;;;;;;5113040;28;20150;-30
2022/06/10 01:25:33;;;;;;;5.30;1.58;;;15.00;73.10;;;;;;5113012;28;20405;-30
2022/06/10 01:28:40;;;;;;;6.32;1.75;;;15.00;73.10;;;;;;5113243;28;20093;-30
2022/06/10 01:31:15;;;;;;;6.82;2.05;;;15.00;73.30;;;;;;5107029;28;20035;-31
2022/06/10 01:34:13;;;;;;;3.78;1.77;;;14.90;73.20;;;;;;5112623;28;20555;-31
2022/06/10 01:37:04;;;;;;;3.80;1.70;;;14.90;73.40;;;;;;5112838;28;20172;-29
2022/06/10 01:39:54;;;;;;;5.30;2.00;;;14.80;73.30;;;;;;5113041;28;20027;-29
2022/06/10 01:42:27;;;;;;;3.42;1.80;;;14.80;73.50;;;;;;5115763;28;20050;-29
2022/06/10 01:45:02;;;;;;;;;;;14.80;73.50;;;;;;5117294;28;20028;-29
2022/06/10 01:47:57;;;;;;;5.22;1.90;;;14.80;73.50;;;;;;5117051;28;19954;-31
2022/06/10 01:50:30;;;;;;;5.15;1.88;;;14.80;73.70;;;;;;5116731;28;20023;-29
2022/06/10 01:53:17;;;;;;;4.32;1.70;;;14.70;73.60;;;;;;5117192;28;20114;-29
2022/06/10 01:55:53;;;;;;;4.63;1.65;;;14.70;73.70;;;;;;5116537;28;20032;-29
2022/06/10 01:58:40;;;;;;;5.47;1.70;;;14.70;73.80;;;;;;5116757;28;20043;-29
2022/06/10 02:01:11;;;;;;;3.95;1.73;;;14.70;73.90;;;;;;5116416;28;20023;-34
2022/06/10 02:04:00;;;;;;;5.60;2.00;;;14.70;73.90;;;;;;5116366;28;20020;-29
2022/06/10 02:06:37;;;;;;;4.47;1.85;;;14.60;74.00;;;;;;5115906;28;20089;-30
2022/06/10 02:09:10;;;;;;;3.88;1.80;;;14.60;74.20;;;;;;5116360;28;20528;-30
2022/06/10 02:11:39;;;;;;;6.95;1.88;;;14.60;74.30;;;;;;5116412;28;20356;-30
2022/06/10 02:14:37;;;;;;;5.05;2.00;;;14.60;74.30;;;;;;5116300;28;20059;-29
2022/06/10 02:17:05;;;;;;;2.67;1.52;;;14.60;74.50;;;;;;5116617;28;20070;-29
2022/06/10 02:19:37;;;;;;;5.00;2.10;;;14.50;74.40;;;;;;5116589;28;20016;-30
2022/06/10 02:22:12;;;;;;;3.47;1.80;;;14.50;74.60;;;;;;5116193;28;20054;-30
2022/06/10 02:24:40;;;;;;;5.32;2.10;;;14.40;74.70;;;;;;5116304;28;20024;-33
2022/06/10 02:27:13;;;;;;;3.75;1.88;;;14.40;74.80;;;;;;5114733;28;20063;-34
2022/06/10 02:29:44;;;;;;;3.50;1.85;;;14.40;74.90;;;;;;5114706;28;20463;-29
2022/06/10 02:32:10;;;;;;;3.88;1.80;;;14.50;75.00;;;;;;5115838;28;20106;-36
2022/06/10 02:34:36;;;;;;;4.45;2.20;;;14.40;75.00;;;;;;5115958;28;20106;-29
2022/06/10 02:37:09;;;;;;;3.88;1.80;;;14.40;75.10;;;;;;5115810;28;20043;-35
2022/06/10 02:39:50;;;;;;;4.07;2.50;;;14.50;75.10;;;;;;5115828;28;20024;-30
2022/06/10 02:42:16;;;;;;;3.78;1.67;;;14.50;75.20;;;;;;5116217;28;20379;-29
2022/06/10 02:45:07;;;;;;;3.80;1.75;;;14.60;75.00;;;;;;5115663;28;20027;-29
2022/06/10 02:47:54;;;;;;;6.63;2.20;;;14.70;74.90;;;;;;5115549;28;20437;-30
2022/06/10 02:50:20;;;;;;;3.72;1.90;;;14.80;74.90;;;;;;5115684;28;20058;-29
2022/06/10 02:52:46;;;;;;;2.95;1.70;;;14.80;74.70;;;;;;5114723;28;20382;-30
2022/06/10 02:55:20;;;;;;;4.05;1.90;;;14.80;74.60;;;;;;5115402;28;20084;-29
2022/06/10 03:03:43;;;;;;;3.47;1.70;;;15.00;74.70;;;;;;5115704;28;20078;-29
2022/06/10 03:06:38;;;;;;;4.85;2.55;;;15.10;74.60;;;;;;5115887;28;20051;-29
2022/06/10 03:09:38;;;;;;;7.57;2.08;;;15.20;74.60;;;;;;5114483;28;20048;-32
2022/06/10 03:12:26;;;;;;;6.53;1.92;;;15.20;75.10;;;;;;5107553;28;20035;-32
2022/06/10 03:15:29;;;;;;;5.55;1.95;;;15.20;74.40;;;;;;5115321;28;20028;-30
2022/06/10 03:18:19;;;;;;;3.10;1.60;;;15.30;74.40;;;;;;5115176;28;20028;-29
2022/06/10 03:20:54;;;;;;;3.92;1.73;;;15.40;74.20;;;;;;5114982;28;20019;-30
2022/06/10 03:23:25;;;;;;;5.28;1.95;;;15.40;74.20;;;;;;5114943;28;20077;-30
2022/06/10 03:25:53;;;;;;;4.25;1.90;;;15.50;74.20;;;;;;5115646;28;20378;-29
2022/06/10 03:28:42;;;;;;;5.20;2.10;;;15.50;74.20;;;;;;5114876;28;20024;-29
2022/06/10 03:31:29;;;;;;;4.93;1.90;;;15.50;74.20;;;;;;5115277;28;20027;-29
2022/06/10 03:34:18;;;;;;;5.60;2.15;;;15.60;74.10;;;;;;5114973;28;20054;-29
2022/06/10 03:36:46;;;;;;;5.88;2.80;;;15.60;74.00;;;;;;5114792;28;20034;-29
2022/06/10 03:39:13;;;;;;;5.85;1.70;;;15.70;74.00;;;;;;5113306;28;20463;-29
2022/06/10 03:42:03;;;;;;;5.57;2.00;;;15.70;73.90;;;;;;5114693;28;20094;-29
2022/06/10 03:44:29;;;;;;;5.18;1.90;;;15.80;73.90;;;;;;5113506;28;20046;-29
2022/06/10 03:46:56;;;;;;;4.30;1.88;;;15.80;73.80;;;;;;5115029;28;20023;-30
2022/06/10 03:49:30;;;;;;;6.20;1.85;;;15.90;73.80;;;;;;5114438;28;20356;-29
2022/06/10 03:51:58;;;;;;;7.88;2.00;;;15.90;73.80;;;;;;5114669;28;20484;-29
2022/06/10 03:54:23;;;;;;;7.30;2.35;;;15.90;73.70;;;;;;5114248;28;20106;-29
2022/06/10 03:56:52;;;;;;;3.20;1.70;;;16.00;74.30;;;;;;5114814;28;20492;-31
2022/06/10 03:59:18;;;;;;;4.57;1.70;;;16.00;73.60;;;;;;5114648;28;20431;-28
2022/06/10 04:01:43;;;;;;;5.93;1.70;;;16.10;73.60;;;;;;5114462;28;20026;-29
2022/06/10 04:04:09;;;;;;;9.13;1.90;;;16.00;73.50;;;;;;5113927;28;20024;-29
2022/06/10 04:06:35;;;;;;;6.70;2.00;;;16.10;73.50;;;;;;5114041;28;20035;-30
2022/06/10 04:09:00;;;;;;;4.65;1.88;;;16.10;73.50;;;;;;5114390;28;20364;-29
2022/06/10 04:11:26;;;;;;;6.43;1.90;;;16.10;73.50;;;;;;5114281;28;20427;-32
2022/06/10 04:13:51;;;;;;;6.50;1.90;;;16.10;73.60;;;;;;5113836;28;20023;-28
2022/06/10 04:16:17;;;;;;;8.70;1.83;;;16.10;73.70;;;;;;5114138;28;20030;-29
2022/06/10 04:18:43;;;;;;;4.53;1.90;;;16.10;73.90;;;;;;5113799;28;20478;-32
2022/06/10 04:21:09;;;;;;;7.28;1.90;;;16.10;74.30;;;;;;5113804;28;20024;-29
2022/06/10 04:23:34;;;;;;;3.92;1.65;;;16.00;74.40;;;;;;5114076;28;20032;-31
2022/06/10 04:26:00;;;;;;;7.18;2.08;;;16.10;74.60;;;;;;5113551;28;20046;-29
2022/06/10 04:28:26;;;;;;;5.15;1.85;;;16.10;74.90;;;;;;5113397;28;20028;-29
2022/06/10 04:30:52;;;;;;;5.60;1.83;;;16.10;75.00;;;;;;5113932;28;20114;-30
2022/06/10 04:33:21;;;;;;;5.25;1.85;;;16.10;75.20;;;;;;5113850;28;20019;-29
2022/06/10 04:35:49;;;;;;;6.65;1.88;;;16.10;75.40;;;;;;5113341;28;20106;-28
2022/06/10 04:38:16;;;;;;;5.20;1.63;;;16.10;75.50;;;;;;5113849;28;20086;-32
2022/06/10 04:40:43;;;;;;;6.20;1.90;;;16.10;75.60;;;;;;5113359;28;20031;-29
2022/06/10 04:43:09;;;;;;;6.03;1.73;;;16.10;75.70;;;;;;5113573;28;20019;-32
2022/06/10 04:45:41;;;;;;;5.47;1.67;;;16.10;75.90;;;;;;5113305;28;20081;-30
2022/06/10 04:48:07;;;;;;;4.20;1.80;;;16.10;76.10;;;;;;5113444;28;20020;-30
2022/06/10 04:50:33;;;;;;;6.55;1.95;;;16.10;76.30;;;;;;5113358;28;20471;-29
2022/06/10 04:52:59;;;;;;;4.22;1.98;;;16.10;76.60;;;;;;5113734;28;20050;-31
2022/06/10 04:55:27;;;;;;;5.35;1.55;;;16.10;76.80;;;;;;5113060;28;20026;-30
2022/06/10 04:57:54;;;;;;;7.63;2.00;;;16.10;77.10;;;;;;5111972;28;20024;-29
2022/06/10 05:00:29;;;;;;;6.05;1.80;;;16.10;77.40;;;;;;5113345;28;20019;-29
2022/06/10 05:02:55;;;;;;;5.57;1.70;;;16.10;77.70;;;;;;5113018;28;20490;-30
2022/06/10 05:05:21;;;;;;;3.58;1.60;;;16.10;77.90;;;;;;5113187;28;20023;-29
2022/06/10 05:07:47;;;;;;;3.95;1.60;;;16.10;78.10;;;;;;5113158;28;20028;-29
2022/06/10 05:10:14;;;;;;;4.35;1.85;;;16.10;78.30;;;;;;5113395;28;20161;-30
2022/06/10 05:12:40;;;;;;;3.72;1.42;;;16.10;78.40;;;;;;5112892;28;20024;-30
2022/06/10 05:15:06;;;;;;;5.22;1.80;;;16.10;78.40;;;;;;5112717;28;20118;-29
2022/06/10 05:17:32;;;;;;;4.10;1.75;;;16.20;78.50;;;;;;5112460;28;20008;-31
2022/06/10 05:19:57;;;;;;;4.82;1.75;;;16.30;78.50;;;;;;5113128;28;20020;-29
2022/06/10 05:22:23;;;;;;;5.63;2.20;;;16.40;78.60;;;;;;5112758;28;20475;-29
2022/06/10 05:24:48;;;;;;;7.07;2.22;;;16.40;78.60;;;;;;5112801;28;20031;-29
2022/06/10 05:27:14;;;;;;;5.05;2.20;;;16.50;78.60;;;;;;5112944;28;20032;-29
2022/06/10 05:29:39;;;;;;;5.15;2.38;;;16.60;78.60;;;;;;5112774;28;20099;-29
2022/06/10 05:32:06;;;;;;;6.25;2.30;;;16.70;78.60;;;;;;5112657;28;20081;-31
2022/06/10 05:34:46;;;;;;;6.38;2.08;;;16.80;78.50;;;;;;5112942;28;20019;-30
2022/06/10 05:37:22;;;;;;;4.50;2.00;;;16.80;78.50;;;;;;5112910;28;20026;-31
2022/06/10 05:39:48;;;;;;;5.30;1.90;;;16.80;78.50;;;;;;5112840;28;20019;-29
2022/06/10 05:42:14;;;;;;;5.40;2.40;;;16.90;78.40;;;;;;5112657;28;20057;-31
2022/06/10 05:44:43;;;;;;;7.65;2.10;;;17.00;78.50;;;;;;5112404;28;20471;-31
2022/06/10 05:47:12;;;;;;;5.47;2.33;;;17.00;78.40;;;;;;5112956;28;20109;-29
2022/06/10 05:49:42;;;;;;;5.95;2.20;;;17.10;78.50;;;;;;5112859;28;20141;-30
2022/06/10 05:52:10;;;;;;;4.38;2.10;;;17.20;78.50;;;;;;5112752;28;20030;-29
2022/06/10 05:54:41;;;;;;;7.82;2.63;;;17.20;78.40;;;;;;5112710;28;20473;-28
2022/06/10 05:57:06;;;;;;;4.97;2.40;;;17.30;78.40;;;;;;5112606;28;20028;-32
2022/06/10 05:59:33;;;;;;;4.57;2.00;;;17.30;78.40;;;;;;5112339;28;20047;-29
2022/06/10 06:01:59;;;;;;;8.35;2.33;;;17.30;78.40;;;;;;5112558;28;20020;-29
2022/06/10 06:04:25;;;;;;;6.50;2.47;;;17.30;78.40;;;;;;5112521;28;20368;-30
2022/06/10 06:06:51;;;;;;;5.47;2.22;;;17.40;78.40;;;;;;5112412;28;20027;-34
2022/06/10 06:09:21;;;;;;;4.03;1.90;;;17.50;78.40;;;;;;5112788;28;20027;-30
2022/06/10 06:11:48;;;;;;;6.45;2.22;;;17.50;78.30;;;;;;5112579;28;20483;-32
2022/06/10 06:14:16;;;;;;;2.90;1.77;;;17.60;78.20;;;;;;5112479;28;20488;-32
2022/06/10 06:16:44;;;;;;;7.55;2.10;;;17.70;78.20;;;;;;5112379;28;20026;-33
2022/06/10 06:19:10;;;;;;;6.18;2.20;;;17.70;78.10;;;;;;5112497;28;20061;-34
2022/06/10 06:21:35;;;;;;;8.23;1.90;;;17.70;78.00;;;;;;5112304;28;20020;-29
2022/06/10 06:24:01;;;;;;;7.32;1.98;;;17.80;77.80;;;;;;5112616;28;20035;-30
2022/06/10 06:26:27;;;;;;;6.18;2.03;;;17.90;77.80;;;;;;5112285;28;20019;-30
2022/06/10 06:28:52;;;;;;;7.70;3.13;;;18.00;77.60;;;;;;5116476;28;20394;-30
2022/06/10 06:31:18;;;;;;;4.63;2.53;;;18.10;77.40;;;;;;5116047;28;20029;-30
2022/06/10 06:33:44;;;;;;;4.32;2.00;;;18.20;77.30;;;;;;5114529;28;20072;-32
2022/06/10 06:36:17;;;;;;;4.32;1.92;;;18.30;77.20;;;;;;5116081;28;20456;-30
2022/06/10 06:38:43;;;;;;;5.97;1.98;;;18.30;77.10;;;;;;5115846;28;20019;-28
2022/06/10 06:41:11;;;;;;;9.25;2.17;;;18.40;77.00;;;;;;5115892;28;20027;-30
2022/06/10 06:43:36;;;;;;;5.13;2.03;;;18.40;76.80;;;;;;5115833;28;20055;-29
2022/06/10 06:46:03;;;;;;;6.43;2.20;;;18.40;76.70;;;;;;5115366;28;20425;-32
2022/06/10 06:48:29;;;;;;;5.00;1.83;;;18.40;76.60;;;;;;5115584;28;20463;-32
2022/06/10 06:50:55;;;;;;;6.55;1.70;;;18.40;76.50;;;;;;5114303;28;20120;-30
2022/06/10 06:53:21;;;;;;;4.97;2.05;;;18.50;76.60;;;;;;5115384;28;20059;-29
2022/06/10 06:55:46;;;;;;;5.07;2.08;;;18.50;77.00;;;;;;5115238;28;20112;-31
2022/06/10 06:58:14;;;;;;;4.05;1.50;;;18.60;76.20;;;;;;5115057;28;20492;-29
2022/06/10 07:00:40;;;;;;;6.00;2.10;;;18.60;76.10;;;;;;5115093;28;20103;-30
2022/06/10 07:03:06;;;;;;;8.70;2.25;;;18.70;75.90;;;;;;5115159;28;20063;-33
2022/06/10 07:05:31;;;;;;;5.20;2.40;;;18.60;75.60;;;;;;5115141;28;20042;-33
2022/06/10 07:07:58;;;;;;;7.43;2.30;;;18.60;75.50;;;;;;5115601;28;20046;-32
2022/06/10 07:10:25;;;;;;;4.70;2.10;;;18.70;75.50;;;;;;5115419;28;20023;-33
2022/06/10 07:12:51;;;;;;;7.18;2.08;;;18.70;75.40;;;;;;5115295;27;20028;-30
2022/06/10 07:15:18;;;;;;;5.07;2.05;;;18.80;75.20;;;;;;5115302;28;20036;-30
2022/06/10 07:17:44;;;;;;;6.63;2.15;;;18.80;75.10;;;;;;5115279;28;20020;-29
2022/06/10 07:20:17;;;;;;;6.93;2.30;;;18.80;75.00;;;;;;5115103;28;20142;-30
2022/06/10 07:22:43;;;;;;;7.95;2.20;;;18.80;75.60;;;;;;5113635;28;20027;-30
2022/06/10 07:25:08;;;;;;;8.70;2.50;;;18.80;74.90;;;;;;5114654;28;20379;-31
2022/06/10 07:27:36;;;;;;;6.55;2.33;;;18.80;74.90;;;;;;5114952;28;20027;-30
2022/06/10 07:30:04;;;;;;;4.93;2.10;;;18.80;74.80;;;;;;5115111;28;20360;-30
2022/06/10 07:32:30;;;;;;;4.80;1.77;;;18.80;74.70;;;;;;5114586;28;20039;-30
2022/06/10 07:34:56;;;;;;;5.90;2.08;;;18.80;74.70;;;;;;5114599;28;20367;-33
2022/06/10 07:37:22;;;;;;;6.63;1.85;;;18.80;75.20;;;;;;5115102;28;20196;-31
2022/06/10 07:39:49;;;;;;;4.82;1.65;;;18.80;74.50;;;;;;5114362;27;20046;-30
2022/06/10 07:42:14;;;;;;;8.52;4.20;;;18.80;74.40;;;;;;5114808;28;20019;-30
2022/06/10 07:44:40;;;;;;;8.00;2.78;;;18.90;74.50;;;;;;5114820;27;20534;-34
2022/06/10 07:47:12;;;;;;;7.47;2.42;;;18.90;74.30;;;;;;5114986;28;20061;-30
2022/06/10 07:49:38;;;;;;;5.40;1.80;;;18.90;74.10;;;;;;5114591;27;20058;-30
2022/06/10 07:52:05;;;;;;;6.55;1.70;;;19.00;74.10;;;;;;5114394;28;20471;-32
2022/06/10 07:54:34;;;;;;;7.47;1.90;;;19.00;73.90;;;;;;5114452;28;20067;-31
2022/06/10 07:57:00;;;;;;;3.60;1.60;;;19.00;73.70;;;;;;5114632;28;20034;-30
2022/06/10 07:59:26;;;;;;;7.88;1.75;;;19.10;73.50;;;;;;5114099;28;20095;-33
2022/06/10 08:01:52;;;;;;;5.45;1.63;;;19.30;73.30;;;;;;5112720;28;20059;-30
2022/06/10 08:04:17;;;;;;;3.20;1.50;;;19.40;73.10;;;;;;5114657;28;20030;-32
2022/06/10 08:06:46;;;;;;;3.83;1.55;;;19.50;72.80;;;;;;5114454;28;20051;-32
2022/06/10 08:09:12;;;;;;;3.70;1.70;;;19.70;72.70;;;;;;5114209;28;20047;-31
2022/06/10 08:11:39;;;;;;;3.53;1.60;;;19.80;72.30;;;;;;5113742;28;20031;-33
2022/06/10 08:14:05;;;;;;;4.43;1.65;;;20.00;72.00;;;;;;5113782;28;20552;-29
2022/06/10 08:16:32;;;;;;;3.70;1.30;;;20.00;71.60;;;;;;5113601;28;20502;-30
2022/06/10 08:18:58;;;;;;;4.22;1.48;;;20.10;71.30;;;;;;5113755;28;20471;-29
2022/06/10 08:22:32;;;;;;;3.30;1.33;;;20.20;71.20;;;;;;5113867;28;20065;-31
2022/06/10 08:24:16;;;;;;;5.82;2.10;;;20.30;70.80;;;;;;5113585;28;20434;-29
2022/06/10 08:26:42;;;;;;;3.38;1.25;;;20.30;70.60;;;;;;5113446;27;20036;-30
2022/06/10 08:29:08;;;;;;;4.72;1.55;;;20.30;70.20;;;;;;5113477;28;20107;-32
2022/06/10 08:31:34;;;;;;;5.45;1.45;;;20.40;70.10;;;;;;5113630;28;20031;-30
2022/06/10 08:34:02;;;;;;;3.83;1.40;;;20.50;69.70;;;;;;5113272;28;20386;-30
2022/06/10 08:36:28;;;;;;;3.40;1.30;;;20.60;69.30;;;;;;5112231;28;20016;-30
2022/06/10 08:38:54;;;;;;;4.28;1.30;;;20.70;69.00;;;;;;5113223;28;20379;-30
2022/06/10 08:41:39;;;;;;;6.13;1.50;;;20.70;68.60;;;;;;5113228;28;20031;-31
2022/06/10 08:44:12;;;;;;;3.42;1.13;;;20.70;68.10;;;;;;5113415;28;20031;-31
2022/06/10 08:47:19;;;;;;;2.10;0.88;;;20.70;68.00;;;;;;5113377;28;20073;-33
2022/06/10 08:49:51;;;;;;;5.15;1.58;;;20.70;68.10;;;;;;5070068;28;20108;-34
2022/06/10 08:52:36;;;;;;;3.85;1.27;;;20.70;67.80;;;;;;5070081;28;20591;-30
2022/06/10 08:55:30;;;;;;;5.38;1.50;;;20.70;67.80;;;;;;5098523;28;20044;-31
2022/06/10 08:58:00;;;;;;;4.38;1.60;;;20.80;67.50;;;;;;5113171;28;20103;-32
2022/06/10 09:00:29;;;;;;;3.55;1.17;;;20.80;67.60;;;;;;5113005;28;20019;-33
2022/06/10 09:03:12;;;;;;;5.03;1.30;;;20.80;67.50;;;;;;5113501;28;20463;-33
2022/06/10 09:05:43;;;;;;;4.82;1.60;;;20.90;67.40;;;;;;5111711;28;20062;-29
2022/06/10 09:08:18;;;;;;;4.70;1.20;;;20.90;67.30;;;;;;5113035;28;20028;-30
2022/06/10 09:11:08;;;;;;;3.67;1.50;;;21.00;67.20;;;;;;5112557;28;20027;-31
2022/06/10 09:13:46;;;;;;;3.45;1.25;;;21.00;67.10;;;;;;5112509;28;20452;-30
2022/06/10 09:16:20;;;;;;;3.53;1.17;;;21.00;66.80;;;;;;5113153;28;20468;-30
2022/06/10 09:18:58;;;;;;;6.28;1.48;;;21.20;66.50;;;;;;5112648;28;20024;-34
2022/06/10 09:21:23;;;;;;;4.57;1.38;;;21.30;66.20;;;;;;5112336;28;20024;-35
2022/06/10 09:23:49;;;;;;;3.40;1.38;;;21.40;65.80;;;;;;5112480;28;20068;-30
2022/06/10 09:26:28;;;;;;;5.32;1.17;;;21.50;65.40;;;;;;5112567;28;20058;-30
2022/06/10 09:28:54;;;;;;;4.85;1.40;;;21.60;65.00;;;;;;5112209;28;20528;-31
2022/06/10 09:31:29;;;;;;;3.55;1.27;;;21.60;64.90;;;;;;5112393;28;20016;-30
2022/06/10 09:34:22;;;;;;;4.28;1.27;;;21.70;64.60;;;;;;5112298;28;20471;-31
2022/06/10 09:37:19;;;;;;;5.22;1.30;;;21.80;64.50;;;;;;5112181;28;20070;-32
2022/06/10 09:43:19;;;;;;;5.32;1.60;;;22.00;63.70;;;;;;5112421;28;20035;-31
2022/06/10 09:45:57;;;;;;;4.85;1.60;;;22.10;63.60;;;;;;5112347;28;20069;-30
2022/06/10 09:48:43;;;;;;;3.22;1.55;;;22.10;63.50;;;;;;5112034;28;20027;-31
2022/06/10 09:51:20;;;;;;;4.18;1.33;;;22.10;63.00;;;;;;5112177;28;20028;-34
2022/06/10 09:54:03;;;;;;;2.10;1.05;;;22.10;63.00;;;;;;5111990;28;20024;-30
2022/06/10 09:56:33;;;;;;;3.58;1.17;;;22.00;63.20;;;;;;5112318;28;20471;-32
2022/06/10 09:59:17;;;;;;;3.85;1.40;;;21.90;63.00;;;;;;5111816;28;20066;-33
2022/06/10 10:01:55;;;;;;;;;;;21.80;63.20;;;;;;5112612;28;20020;-32
2022/06/10 10:05:00;;;;;;;2.92;1.45;;;21.80;63.60;;;;;;5116080;28;20013;-30
2022/06/10 10:07:34;;;;;;;5.57;1.42;;;21.70;63.30;;;;;;5116208;27;20076;-33
2022/06/10 10:10:05;;;;;;;4.32;1.40;;;21.70;63.50;;;;;;5114597;28;20030;-30
2022/06/10 10:12:55;;;;;;;3.50;1.20;;;21.80;63.40;;;;;;5115768;28;20031;-31
2022/06/10 10:15:42;;;;;;;4.55;1.55;;;21.90;63.20;;;;;;5115646;28;20031;-30
2022/06/10 10:18:29;;;;;;;4.20;1.33;;;22.10;63.10;;;;;;5116082;28;20046;-29
2022/06/10 10:21:21;;;;;;;5.97;1.40;;;22.30;62.90;;;;;;5115867;28;20069;-31
2022/06/10 10:23:50;;;;;;;4.28;1.63;;;22.50;62.40;;;;;;5115582;28;20072;-31
2022/06/10 10:26:16;;;;;;;3.42;1.35;;;22.60;62.10;;;;;;5115833;28;20024;-32
2022/06/10 10:28:42;;;;;;;4.20;1.30;;;22.70;62.00;;;;;;5116040;28;20341;-31
2022/06/10 10:31:26;;;;;;;5.18;1.95;;;22.90;61.70;;;;;;5116157;28;20424;-33
2022/06/10 10:33:53;;;;;;;3.15;1.30;;;23.00;61.30;;;;;;5115817;28;20374;-33
2022/06/10 10:36:30;;;;;;;8.10;1.63;;;23.10;61.10;;;;;;5115619;28;20378;-30
2022/06/10 10:38:57;;;;;;;7.43;1.67;;;23.20;60.80;;;;;;5115659;28;20020;-33
2022/06/10 10:41:33;;;;;;;3.67;1.38;;;23.20;60.70;;;;;;5115707;28;20405;-34
2022/06/10 10:44:38;;;;;;;7.03;1.50;;;23.20;60.70;;;;;;5115596;28;20019;-34
2022/06/10 10:47:10;;;;;;;5.28;2.00;;;23.20;60.40;;;;;;5114927;28;20114;-32
2022/06/10 10:49:43;;;;;;;3.75;1.70;;;23.30;60.30;;;;;;5115194;28;20028;-31
2022/06/10 10:52:37;;;;;;;4.28;1.50;;;23.30;60.20;;;;;;5115191;28;20374;-33
2022/06/10 10:55:18;;;;;;;5.40;1.90;;;23.30;60.00;;;;;;5115050;27;20023;-30
2022/06/10 10:58:18;;;;;;;4.90;1.70;;;23.30;60.00;;;;;;5115090;28;20020;-34
2022/06/10 11:00:53;;;;;;;4.57;1.70;;;23.30;60.00;;;;;;5114996;28;20028;-31
2022/06/10 11:03:49;;;;;;;6.28;1.90;;;23.40;60.00;;;;;;5113358;28;20054;-29
2022/06/10 11:06:32;;;;;;;5.38;2.00;;;23.40;59.80;;;;;;5114900;28;20536;-30
2022/06/10 11:09:20;;;;;;;6.65;1.92;;;23.40;59.40;;;;;;5115145;28;20059;-30
2022/06/10 11:11:47;;;;;;;6.72;2.08;;;23.40;59.80;;;;;;5114720;28;20027;-31
2022/06/10 11:14:36;;;;;;;4.72;1.90;;;23.30;59.80;;;;;;5113655;28;20027;-33
2022/06/10 11:17:11;;;;;;;6.43;1.70;;;23.20;59.80;;;;;;5114668;28;20421;-31
2022/06/10 11:19:37;;;;;;;4.85;1.67;;;23.20;60.00;;;;;;5112982;28;20494;-31
2022/06/10 11:22:21;;;;;;;6.82;1.70;;;23.20;60.30;;;;;;5114556;28;20016;-33
2022/06/10 11:25:14;;;;;;;7.13;1.95;;;23.20;60.30;;;;;;5114464;28;20031;-32
2022/06/10 11:28:20;;;;;;;6.05;2.05;;;23.20;60.30;;;;;;5108956;27;20059;-29
2022/06/10 11:30:49;;;;;;;6.18;1.70;;;23.10;60.50;;;;;;5113835;28;20063;-34
2022/06/10 11:33:23;;;;;;;7.07;1.80;;;23.00;60.80;;;;;;5114747;27;20168;-31
2022/06/10 11:36:03;;;;;;;5.15;1.88;;;23.00;60.90;;;;;;5114166;28;20082;-30
2022/06/10 11:38:32;;;;;;;5.55;1.55;;;23.00;61.00;;;;;;5114208;28;20024;-30
2022/06/10 11:41:14;;;;;;;4.55;1.70;;;23.00;61.20;;;;;;5114098;28;20383;-31
2022/06/10 11:43:46;;;;;;;10.25;1.90;;;23.00;61.20;;;;;;5114017;28;20110;-33
2022/06/10 11:46:41;;;;;;;6.40;1.75;;;22.90;61.10;;;;;;5114251;28;20024;-35
2022/06/10 11:49:40;;;;;;;3.65;1.58;;;22.90;61.20;;;;;;5114345;28;20495;-35
2022/06/10 11:52:22;;;;;;;6.93;1.90;;;23.00;61.10;;;;;;5114394;28;20088;-32
2022/06/10 11:55:14;;;;;;;3.92;1.60;;;23.10;61.00;;;;;;5114742;28;20080;-33
2022/06/10 12:01:13;;;;;;;4.22;1.60;;;23.30;60.80;;;;;;5114451;28;20119;-35
2022/06/10 12:03:46;;;;;;;5.13;1.70;;;23.40;60.50;;;;;;5114087;28;20024;-36
2022/06/10 12:06:18;;;;;;;;;;;23.50;60.20;;;;;;5114364;28;20020;-33
2022/06/10 12:08:47;;;;;;;4.28;1.50;;;23.60;60.30;;;;;;5114052;28;19939;-34
2022/06/10 12:11:53;;;;;;;5.03;1.92;;;23.80;60.30;;;;;;5114389;28;20466;-32
2022/06/10 12:14:34;;;;;;;5.05;1.70;;;23.90;60.20;;;;;;5106500;28;20036;-34
2022/06/10 12:17:04;;;;;;;5.57;1.80;;;24.10;60.00;;;;;;5114226;28;20027;-43
2022/06/10 12:19:42;;;;;;;5.93;2.05;;;24.20;59.60;;;;;;5113833;27;20027;-39
2022/06/10 12:22:09;;;;;;;3.20;1.73;;;24.30;59.30;;;;;;5113886;28;20069;-33
2022/06/10 12:24:35;;;;;;;6.07;2.08;;;24.40;59.10;;;;;;5113649;28;20031;-33
2022/06/10 12:27:05;;;;;;;3.85;1.83;;;24.50;59.00;;;;;;5114322;28;20138;-34
2022/06/10 12:29:53;;;;;;;5.60;1.77;;;24.50;58.40;;;;;;5113978;28;20024;-33
2022/06/10 12:32:45;;;;;;;3.50;2.15;;;24.50;58.30;;;;;;5113389;28;20019;-31
2022/06/10 12:35:25;;;;;;;5.28;2.15;;;24.40;58.40;;;;;;5112870;28;20035;-33
2022/06/10 12:38:04;;;;;;;4.82;1.85;;;24.20;58.50;;;;;;5113276;28;20490;-32
2022/06/10 12:40:54;;;;;;;4.88;2.17;;;24.20;58.80;;;;;;5113056;28;20023;-30
2022/06/10 12:43:31;;;;;;;4.32;1.77;;;24.20;58.80;;;;;;5113266;28;20023;-30
2022/06/10 12:46:05;;;;;;;3.00;1.60;;;24.10;58.80;;;;;;5112923;28;20028;-33
2022/06/10 12:48:50;;;;;;;5.20;2.08;;;24.20;58.80;;;;;;5113106;28;20028;-34
2022/06/10 12:51:19;;;;;;;5.18;1.95;;;24.50;58.80;;;;;;5112751;27;20039;-32
2022/06/10 12:53:59;;;;;;;6.40;2.30;;;24.60;58.50;;;;;;5112512;28;20043;-32
2022/06/10 12:56:31;;;;;;;6.53;1.90;;;24.70;58.10;;;;;;5112640;28;20045;-31
2022/06/10 12:59:19;;;;;;;4.82;2.08;;;24.70;58.10;;;;;;5112402;28;20114;-30
2022/06/10 13:01:46;;;;;;;5.00;2.17;;;24.70;58.00;;;;;;5112574;28;20036;-31
2022/06/10 13:04:14;;;;;;;5.63;1.77;;;24.60;58.00;;;;;;5112472;28;20032;-30
2022/06/10 13:06:42;;;;;;;5.60;2.13;;;24.50;58.30;;;;;;5110997;28;20027;-31
2022/06/10 13:09:11;;;;;;;6.05;2.00;;;24.30;58.60;;;;;;5112414;28;20031;-30
2022/06/10 13:11:46;;;;;;;6.65;2.00;;;24.20;58.80;;;;;;5112307;28;20024;-34
2022/06/10 13:14:16;;;;;;;6.35;1.90;;;24.20;58.80;;;;;;5112162;28;20110;-30
2022/06/10 13:16:46;;;;;;;4.32;2.10;;;24.00;59.00;;;;;;5112526;28;20110;-31
2022/06/10 13:19:36;;;;;;;4.63;1.75;;;24.00;59.20;;;;;;5112766;28;20069;-33
2022/06/10 13:22:19;;;;;;;6.13;1.98;;;23.90;59.30;;;;;;5112140;28;20016;-30
2022/06/10 13:24:54;;;;;;;;;;;23.90;59.20;;;;;;5112745;28;20565;-30
2022/06/10 13:27:40;;;;;;;4.28;2.00;;;24.00;59.30;;;;;;5112333;28;20413;-30
2022/06/10 13:30:22;;;;;;;4.60;2.10;;;24.20;58.90;;;;;;5112579;28;20035;-32
2022/06/10 13:33:07;;;;;;;6.95;2.00;;;24.30;58.70;;;;;;5112071;28;20038;-31
2022/06/10 13:35:35;;;;;;;4.60;2.00;;;24.30;58.60;;;;;;5112209;28;20092;-30